createdAt,value
2018-03-14T00:00:07.695Z,9.90
2018-03-14T00:02:37.930Z,9.80
2018-03-14T00:05:08.700Z,9.60
2018-03-14T00:07:39.764Z,9.70
2018-03-14T00:10:08.618Z,9.80
2018-03-14T00:12:37.351Z,9.70
2018-03-14T00:15:05.860Z,9.60
2018-03-14T00:17:35.318Z,9.60
2018-03-14T00:20:04.450Z,9.50
2018-03-14T00:22:33.143Z,9.50
2018-03-14T00:25:02.012Z,9.40
2018-03-14T00:27:30.855Z,9.50
2018-03-14T00:29:59.669Z,9.50
2018-03-14T00:32:29.427Z,9.60
2018-03-14T00:34:58.508Z,9.70
2018-03-14T00:37:27.580Z,9.60
2018-03-14T00:39:56.139Z,9.60
2018-03-14T00:42:24.974Z,9.60
2018-03-14T00:44:53.647Z,9.50
2018-03-14T00:47:22.304Z,9.50
2018-03-14T00:49:51.211Z,9.60
2018-03-14T00:52:19.890Z,9.50
2018-03-14T00:54:48.591Z,9.70
2018-03-14T00:57:17.479Z,9.50
2018-03-14T00:59:46.836Z,9.60
2018-03-14T01:02:16.752Z,9.50
2018-03-14T01:07:18.721Z,9.60
2018-03-14T01:09:47.721Z,9.60
2018-03-14T01:12:17.630Z,9.70
2018-03-14T01:14:46.400Z,9.60
2018-03-14T01:17:16.186Z,9.70
2018-03-14T01:19:46.487Z,9.80
2018-03-14T01:22:15.454Z,10.00
2018-03-14T01:24:44.121Z,9.90
2018-03-14T01:27:13.260Z,9.90
2018-03-14T01:29:42.040Z,9.90
2018-03-14T01:32:10.976Z,9.90
2018-03-14T01:34:41.098Z,10.10
2018-03-14T01:37:10.003Z,10.10
2018-03-14T01:39:38.928Z,10.20
2018-03-14T01:42:07.648Z,10.10
2018-03-14T01:44:36.533Z,10.10
2018-03-14T01:47:05.664Z,10.00
2018-03-14T01:49:34.784Z,9.90
2018-03-14T01:52:03.472Z,10.10
2018-03-14T01:54:32.587Z,10.00
2018-03-14T01:57:01.275Z,10.00
2018-03-14T01:59:29.949Z,10.10
2018-03-14T02:01:59.654Z,10.10
2018-03-14T02:04:28.539Z,10.00
2018-03-14T02:06:57.895Z,9.80
2018-03-14T02:09:27.432Z,9.90
2018-03-14T02:11:56.493Z,10.10
2018-03-14T02:14:25.992Z,10.00
2018-03-14T02:16:54.776Z,9.70
2018-03-14T02:19:24.063Z,10.00
2018-03-14T02:21:53.080Z,9.80
2018-03-14T02:24:21.685Z,10.10
2018-03-14T02:26:51.955Z,9.70
2018-03-14T02:29:20.807Z,9.70
2018-03-14T02:31:49.451Z,10.00
2018-03-14T02:34:18.517Z,9.70
2018-03-14T02:37:05.577Z,9.70
2018-03-14T02:39:35.901Z,9.60
2018-03-14T02:42:05.333Z,9.60
2018-03-14T02:44:35.223Z,9.60
2018-03-14T02:47:04.120Z,9.70
2018-03-14T02:49:32.978Z,9.60
2018-03-14T02:52:02.299Z,9.60
2018-03-14T02:54:31.039Z,9.70
2018-03-14T02:57:01.541Z,9.50
2018-03-14T02:59:30.234Z,9.60
2018-03-14T03:01:59.194Z,9.40
2018-03-14T03:04:30.372Z,9.30
2018-03-14T03:06:59.395Z,9.30
2018-03-14T03:09:28.105Z,9.40
2018-03-14T03:11:57.776Z,9.10
2018-03-14T03:14:26.702Z,9.10
2018-03-14T03:16:56.466Z,8.60
2018-03-14T03:19:25.266Z,8.90
2018-03-14T03:21:53.907Z,8.50
2018-03-14T03:24:23.186Z,8.50
2018-03-14T03:26:52.100Z,8.90
2018-03-14T03:29:20.756Z,8.90
2018-03-14T03:31:50.677Z,8.70
2018-03-14T03:34:19.566Z,8.50
2018-03-14T03:36:48.475Z,8.70
2018-03-14T03:39:17.757Z,8.50
2018-03-14T03:41:46.454Z,8.50
2018-03-14T03:44:15.111Z,8.60
2018-03-14T03:46:43.639Z,8.50
2018-03-14T03:49:12.316Z,8.60
2018-03-14T03:51:40.996Z,8.60
2018-03-14T03:54:09.994Z,8.50
2018-03-14T03:56:38.888Z,8.50
2018-03-14T03:59:08.770Z,8.70
2018-03-14T04:01:37.678Z,8.60
2018-03-14T04:04:06.177Z,8.90
2018-03-14T04:06:35.082Z,8.70
2018-03-14T04:09:03.761Z,8.90
2018-03-14T04:11:32.454Z,8.90
2018-03-14T04:14:00.913Z,8.80
2018-03-14T04:16:29.590Z,8.90
2018-03-14T04:18:58.252Z,8.80
2018-03-14T04:21:26.949Z,9.00
2018-03-14T04:23:55.716Z,9.00
2018-03-14T04:26:25.178Z,9.00
2018-03-14T04:28:54.670Z,8.90
2018-03-14T04:31:23.513Z,9.00
2018-03-14T04:33:52.256Z,8.90
2018-03-14T04:36:21.090Z,8.90
2018-03-14T04:38:50.872Z,8.40
2018-03-14T04:41:19.117Z,8.60
2018-03-14T04:43:47.871Z,8.50
2018-03-14T04:46:17.363Z,8.70
2018-03-14T04:48:46.912Z,8.70
2018-03-14T04:51:15.817Z,8.90
2018-03-14T04:53:44.282Z,8.80
2018-03-14T04:56:12.747Z,8.60
2018-03-14T04:58:41.432Z,8.70
2018-03-14T05:01:10.709Z,8.70
2018-03-14T05:03:39.178Z,9.00
2018-03-14T05:06:08.499Z,8.70
2018-03-14T05:08:37.928Z,8.70
2018-03-14T05:11:06.600Z,8.90
2018-03-14T05:13:35.486Z,8.90
2018-03-14T05:16:04.569Z,9.00
2018-03-14T05:18:33.236Z,8.70
2018-03-14T05:21:01.924Z,8.90
2018-03-14T05:23:30.638Z,8.90
2018-03-14T05:26:00.964Z,8.90
2018-03-14T05:28:29.621Z,8.70
2018-03-14T05:30:58.311Z,8.90
2018-03-14T05:33:27.012Z,8.70
2018-03-14T05:35:55.692Z,8.90
2018-03-14T05:38:24.197Z,9.00
2018-03-14T05:40:52.859Z,8.60
2018-03-14T05:43:21.749Z,8.60
2018-03-14T05:45:50.275Z,8.70
2018-03-14T05:48:19.021Z,8.70
2018-03-14T05:50:47.704Z,8.70
2018-03-14T05:53:16.560Z,8.90
2018-03-14T05:55:45.042Z,8.50
2018-03-14T05:58:13.872Z,8.50
2018-03-14T06:00:43.581Z,8.90
2018-03-14T06:03:12.682Z,8.60
2018-03-14T06:05:41.550Z,8.70
2018-03-14T06:08:10.828Z,9.00
2018-03-14T06:10:39.513Z,8.70
2018-03-14T06:13:08.205Z,9.00
2018-03-14T06:15:36.902Z,8.90
2018-03-14T06:18:05.569Z,8.80
2018-03-14T06:20:34.063Z,9.00
2018-03-14T06:23:02.566Z,8.80
2018-03-14T06:25:31.083Z,8.90
2018-03-14T06:27:59.727Z,8.70
2018-03-14T06:30:28.397Z,8.90
2018-03-14T06:32:57.824Z,8.70
2018-03-14T06:35:26.490Z,8.90
2018-03-14T06:37:55.557Z,8.90
2018-03-14T06:40:24.245Z,8.90
2018-03-14T06:42:52.958Z,8.80
2018-03-14T06:45:21.854Z,8.70
2018-03-14T06:47:50.732Z,8.80
2018-03-14T06:50:19.650Z,8.90
2018-03-14T06:52:48.281Z,8.80
2018-03-14T06:55:16.800Z,9.00
2018-03-14T06:57:45.752Z,8.80
2018-03-14T07:00:20.204Z,8.90
2018-03-14T07:02:56.638Z,8.70
2018-03-14T07:05:30.677Z,8.70
2018-03-14T07:07:59.410Z,8.50
2018-03-14T07:10:27.843Z,8.60
2018-03-14T07:12:56.550Z,8.40
2018-03-14T07:15:25.768Z,8.50
2018-03-14T07:17:54.765Z,8.40
2018-03-14T07:20:23.623Z,8.40
2018-03-14T07:22:52.287Z,8.60
2018-03-14T07:25:20.790Z,8.30
2018-03-14T07:27:49.476Z,8.30
2018-03-14T07:30:18.943Z,8.30
2018-03-14T07:32:47.673Z,8.30
2018-03-14T07:35:16.320Z,8.60
2018-03-14T07:37:45.002Z,8.50
2018-03-14T07:40:13.887Z,8.00
2018-03-14T07:42:43.000Z,8.00
2018-03-14T07:45:12.100Z,8.00
2018-03-14T07:47:40.792Z,8.00
2018-03-14T07:50:10.046Z,8.10
2018-03-14T07:52:38.790Z,8.20
2018-03-14T07:55:07.643Z,8.20
2018-03-14T07:57:37.594Z,8.40
2018-03-14T08:00:06.244Z,8.10
2018-03-14T08:02:35.019Z,8.10
2018-03-14T08:05:03.720Z,8.50
2018-03-14T08:07:32.379Z,8.20
2018-03-14T08:10:01.669Z,8.20
2018-03-14T08:12:31.822Z,8.50
2018-03-14T08:15:00.898Z,8.10
2018-03-14T08:17:30.698Z,8.10
2018-03-14T08:19:59.413Z,8.60
2018-03-14T08:22:28.296Z,8.40
2018-03-14T08:24:58.202Z,8.60
2018-03-14T08:27:27.280Z,8.50
2018-03-14T08:29:55.987Z,8.60
2018-03-14T08:32:24.879Z,8.60
2018-03-14T08:34:54.385Z,8.30
2018-03-14T08:37:23.055Z,8.30
2018-03-14T08:39:51.742Z,8.30
2018-03-14T08:42:20.448Z,8.40
2018-03-14T08:44:49.097Z,8.60
2018-03-14T08:47:18.414Z,8.40
2018-03-14T08:49:47.093Z,8.30
2018-03-14T08:52:15.600Z,8.60
2018-03-14T08:54:44.364Z,8.60
2018-03-14T08:57:13.778Z,8.30
2018-03-14T08:59:42.868Z,8.60
2018-03-14T09:02:12.250Z,8.20
2018-03-14T09:04:40.937Z,8.10
2018-03-14T09:07:09.810Z,8.30
2018-03-14T09:09:38.507Z,8.00
2018-03-14T09:12:07.222Z,7.90
2018-03-14T09:14:35.879Z,8.20
2018-03-14T09:17:04.388Z,7.70
2018-03-14T09:19:33.281Z,8.00
2018-03-14T09:22:02.197Z,7.90
2018-03-14T09:24:30.832Z,8.20
2018-03-14T09:26:59.488Z,7.90
2018-03-14T09:29:28.415Z,8.20
2018-03-14T09:31:57.107Z,8.10
2018-03-14T09:34:25.800Z,8.00
2018-03-14T09:36:54.582Z,8.00
2018-03-14T09:39:23.085Z,8.20
2018-03-14T09:41:51.948Z,8.20
2018-03-14T09:44:20.597Z,8.10
2018-03-14T09:46:49.307Z,7.70
2018-03-14T09:49:17.794Z,7.90
2018-03-14T09:51:46.276Z,7.80
2018-03-14T09:54:14.748Z,8.20
2018-03-14T09:56:43.443Z,7.70
2018-03-14T09:59:12.104Z,7.70
2018-03-14T10:01:41.023Z,7.90
2018-03-14T10:04:09.683Z,7.90
2018-03-14T10:06:38.384Z,7.90
2018-03-14T10:09:07.285Z,7.80
2018-03-14T10:11:36.126Z,7.70
2018-03-14T10:14:04.641Z,7.70
2018-03-14T10:16:33.394Z,7.90
2018-03-14T10:19:01.896Z,7.90
2018-03-14T10:21:31.295Z,7.90
2018-03-14T10:24:00.659Z,8.00
2018-03-14T10:26:29.503Z,8.20
2018-03-14T10:28:58.581Z,7.60
2018-03-14T10:31:27.501Z,7.90
2018-03-14T10:33:56.167Z,8.00
2018-03-14T10:36:24.857Z,8.20
2018-03-14T10:38:53.754Z,7.90
2018-03-14T10:41:22.444Z,8.20
2018-03-14T10:43:51.114Z,8.00
2018-03-14T10:46:19.992Z,8.20
2018-03-14T10:48:48.685Z,7.90
2018-03-14T10:51:17.564Z,8.00
2018-03-14T10:53:46.989Z,8.20
2018-03-14T10:56:15.680Z,8.20
2018-03-14T10:58:44.560Z,8.20
2018-03-14T11:01:13.248Z,8.20
2018-03-14T11:03:46.408Z,8.10
2018-03-14T11:06:15.090Z,7.90
2018-03-14T11:08:44.418Z,7.60
2018-03-14T11:11:13.073Z,7.60
2018-03-14T11:13:42.597Z,7.60
2018-03-14T11:16:11.244Z,7.60
2018-03-14T11:18:39.965Z,7.80
2018-03-14T11:21:09.046Z,7.90
2018-03-14T11:23:37.747Z,8.10
2018-03-14T11:26:06.407Z,8.00
2018-03-14T11:28:35.152Z,8.00
2018-03-14T11:31:04.189Z,7.70
2018-03-14T11:33:33.291Z,8.20
2018-03-14T11:36:02.159Z,7.80
2018-03-14T11:38:30.666Z,7.60
2018-03-14T11:40:59.359Z,7.90
2018-03-14T11:43:28.212Z,7.90
2018-03-14T11:45:57.760Z,7.60
2018-03-14T11:48:26.432Z,7.60
2018-03-14T11:50:55.161Z,7.60
2018-03-14T11:53:23.636Z,7.70
2018-03-14T11:55:52.686Z,7.60
2018-03-14T11:58:21.404Z,7.50
2018-03-14T12:00:50.725Z,7.60
2018-03-14T12:03:19.342Z,7.60
2018-03-14T12:05:48.260Z,7.60
2018-03-14T12:08:16.947Z,7.60
2018-03-14T12:10:45.606Z,7.60
2018-03-14T12:13:14.174Z,7.30
2018-03-14T12:15:42.999Z,7.40
2018-03-14T12:18:11.676Z,7.80
2018-03-14T12:20:40.399Z,7.30
2018-03-14T12:23:09.063Z,7.80
2018-03-14T12:25:37.750Z,7.80
2018-03-14T12:28:06.428Z,7.30
2018-03-14T12:30:35.107Z,7.60
2018-03-14T12:33:04.411Z,7.30
2018-03-14T12:35:33.107Z,7.30
2018-03-14T12:38:01.739Z,7.40
2018-03-14T12:40:30.258Z,7.30
2018-03-14T12:42:59.654Z,7.20
2018-03-14T12:45:28.119Z,7.30
2018-03-14T12:47:56.925Z,7.30
2018-03-14T12:50:25.654Z,7.30
2018-03-14T12:52:54.295Z,7.30
2018-03-14T12:55:23.018Z,7.30
2018-03-14T12:57:51.876Z,7.30
2018-03-14T13:00:20.465Z,7.30
2018-03-14T13:02:49.314Z,7.40
2018-03-14T13:05:18.584Z,7.30
2018-03-14T13:07:47.454Z,7.30
2018-03-14T13:10:15.921Z,7.30
2018-03-14T13:12:44.490Z,7.40
2018-03-14T13:15:13.168Z,7.30
2018-03-14T13:17:42.084Z,7.30
2018-03-14T13:20:10.724Z,7.50
2018-03-14T13:22:39.543Z,7.30
2018-03-14T13:25:08.947Z,7.30
2018-03-14T13:27:37.628Z,7.50
2018-03-14T13:30:06.299Z,7.20
2018-03-14T13:32:34.983Z,7.30
2018-03-14T13:35:03.535Z,7.30
2018-03-14T13:37:32.970Z,7.20
2018-03-14T13:40:01.728Z,7.20
2018-03-14T13:42:30.760Z,7.20
2018-03-14T13:44:59.459Z,7.20
2018-03-14T13:47:28.161Z,7.20
2018-03-14T13:49:57.015Z,7.20
2018-03-14T13:52:25.741Z,7.20
2018-03-14T13:54:54.390Z,7.20
2018-03-14T13:57:23.969Z,7.20
2018-03-14T13:59:52.890Z,7.00
2018-03-14T14:02:21.550Z,7.40
2018-03-14T14:04:51.130Z,7.10
2018-03-14T14:07:19.589Z,6.90
2018-03-14T14:09:48.051Z,7.00
2018-03-14T14:12:16.557Z,7.20
2018-03-14T14:14:44.954Z,6.90
2018-03-14T14:17:13.679Z,7.10
2018-03-14T14:19:42.365Z,6.90
2018-03-14T14:22:11.260Z,6.80
2018-03-14T14:24:39.942Z,6.80
2018-03-14T14:27:08.851Z,7.00
2018-03-14T14:29:37.716Z,6.90
2018-03-14T14:32:06.386Z,6.90
2018-03-14T14:34:35.294Z,6.90
2018-03-14T14:37:03.958Z,6.80
2018-03-14T14:39:34.514Z,6.90
2018-03-14T14:42:02.982Z,6.70
2018-03-14T14:44:31.517Z,6.70
2018-03-14T14:47:00.156Z,7.00
2018-03-14T14:49:28.642Z,6.70
2018-03-14T14:51:57.632Z,6.60
2018-03-14T14:54:26.414Z,6.80
2018-03-14T14:56:55.173Z,6.90
2018-03-14T14:59:24.027Z,6.90
2018-03-14T15:01:52.584Z,6.80
2018-03-14T15:04:22.413Z,7.10
2018-03-14T15:06:51.487Z,6.80
2018-03-14T15:09:20.614Z,6.90
2018-03-14T15:11:49.775Z,6.90
2018-03-14T15:14:18.487Z,6.90
2018-03-14T15:16:46.994Z,7.10
2018-03-14T15:19:15.639Z,7.00
2018-03-14T15:21:43.912Z,6.90
2018-03-14T15:24:12.370Z,6.90
2018-03-14T15:26:40.707Z,7.00
2018-03-14T15:29:09.530Z,6.90
2018-03-14T15:31:38.243Z,6.90
2018-03-14T15:34:07.156Z,7.10
2018-03-14T15:36:35.430Z,7.20
2018-03-14T15:39:04.226Z,7.20
2018-03-14T15:41:32.862Z,7.20
2018-03-14T15:44:01.936Z,7.20
2018-03-14T15:46:31.079Z,7.30
2018-03-14T15:48:59.825Z,7.50
2018-03-14T15:51:29.092Z,7.30
2018-03-14T15:53:57.652Z,7.20
2018-03-14T15:56:26.370Z,7.20
2018-03-14T15:58:55.286Z,7.30
2018-03-14T16:01:24.655Z,7.30
2018-03-14T16:03:53.264Z,7.20
2018-03-14T16:06:21.967Z,7.40
2018-03-14T16:08:50.632Z,7.40
2018-03-14T16:11:19.490Z,7.60
2018-03-14T16:13:48.422Z,7.90
2018-03-14T16:16:17.105Z,8.30
2018-03-14T16:18:45.994Z,8.60
2018-03-14T16:21:14.516Z,8.90
2018-03-14T16:23:43.162Z,9.70
2018-03-14T16:26:11.657Z,10.40
2018-03-14T16:28:40.431Z,11.50
2018-03-14T16:31:10.116Z,12.20
2018-03-14T16:33:38.648Z,13.00
2018-03-14T16:36:07.298Z,13.90
2018-03-14T16:38:36.193Z,14.60
2018-03-14T16:41:04.881Z,14.90
2018-03-14T16:43:33.747Z,15.70
2018-03-14T16:46:03.079Z,16.60
2018-03-14T16:48:31.570Z,16.50
2018-03-14T16:51:00.443Z,17.10
2018-03-14T16:53:29.114Z,17.40
2018-03-14T16:55:57.850Z,17.50
2018-03-14T16:58:26.505Z,17.00
2018-03-14T17:00:55.200Z,17.00
2018-03-14T17:03:24.262Z,16.10
2018-03-14T17:05:53.983Z,16.50
2018-03-14T17:08:22.886Z,16.50
2018-03-14T17:10:51.977Z,17.00
2018-03-14T17:13:20.749Z,17.40
2018-03-14T17:15:50.440Z,18.00
2018-03-14T17:18:19.129Z,17.90
2018-03-14T17:20:48.028Z,17.40
2018-03-14T17:23:16.951Z,17.30
2018-03-14T17:25:45.595Z,17.60
2018-03-14T17:28:15.234Z,17.40
2018-03-14T17:30:43.914Z,17.30
2018-03-14T17:33:12.583Z,17.40
2018-03-14T17:35:41.463Z,17.50
2018-03-14T17:38:11.096Z,17.70
2018-03-14T17:40:39.762Z,17.70
2018-03-14T17:43:08.470Z,17.80
2018-03-14T17:45:36.942Z,17.90
2018-03-14T17:48:05.732Z,18.00
2018-03-14T17:50:34.615Z,18.20
2018-03-14T17:53:03.491Z,18.50
2018-03-14T17:55:32.782Z,18.10
2018-03-14T17:58:01.266Z,18.20
2018-03-14T18:00:29.983Z,17.90
2018-03-14T18:02:59.234Z,17.80
2018-03-14T18:05:27.935Z,17.70
2018-03-14T18:07:57.575Z,17.90
2018-03-14T18:10:26.205Z,17.90
2018-03-14T18:12:56.609Z,17.60
2018-03-14T18:15:26.497Z,17.60
2018-03-14T18:17:55.359Z,17.60
2018-03-14T18:20:24.143Z,17.90
2018-03-14T18:22:52.705Z,18.10
2018-03-14T18:25:21.954Z,17.90
2018-03-14T18:27:50.602Z,17.90
2018-03-14T18:30:19.709Z,17.90
2018-03-14T18:32:49.757Z,16.60
2018-03-14T18:35:18.715Z,16.30
2018-03-14T18:37:48.020Z,15.60
2018-03-14T18:40:16.880Z,15.40
2018-03-14T18:42:45.784Z,15.20
2018-03-14T18:45:14.485Z,15.40
2018-03-14T18:47:43.176Z,15.00
2018-03-14T18:50:12.074Z,14.90
2018-03-14T18:52:40.732Z,14.70
2018-03-14T18:55:09.399Z,14.40
2018-03-14T18:57:38.112Z,14.50
2018-03-14T19:00:07.397Z,14.50
2018-03-14T19:02:36.477Z,14.40
2018-03-14T19:05:05.000Z,14.20
2018-03-14T19:07:34.075Z,13.80
2018-03-14T19:10:02.762Z,13.70
2018-03-14T19:12:31.418Z,13.80
2018-03-14T19:15:00.108Z,14.00
2018-03-14T19:17:29.035Z,14.00
2018-03-14T19:19:57.710Z,13.90
2018-03-14T19:22:26.401Z,13.80
2018-03-14T19:24:55.127Z,14.10
2018-03-14T19:27:23.947Z,14.50
2018-03-14T19:29:52.700Z,14.70
2018-03-14T19:32:21.556Z,15.00
2018-03-14T19:34:50.423Z,15.40
2018-03-14T19:37:19.128Z,15.50
2018-03-14T19:39:48.445Z,15.50
2018-03-14T19:42:17.602Z,15.50
2018-03-14T19:44:46.272Z,15.60
2018-03-14T19:47:14.781Z,15.40
2018-03-14T19:49:43.448Z,15.60
2018-03-14T19:52:12.538Z,15.70
2018-03-14T19:54:41.616Z,15.50
2018-03-14T19:57:10.640Z,15.60
2018-03-14T19:59:39.553Z,15.70
2018-03-14T20:02:09.675Z,15.70
2018-03-14T20:04:38.576Z,15.50
2018-03-14T20:07:07.549Z,15.20
2018-03-14T20:09:36.800Z,14.80
2018-03-14T20:12:05.886Z,14.70
2018-03-14T20:14:34.602Z,14.90
2018-03-14T20:17:03.508Z,15.00
2018-03-14T20:19:32.415Z,15.10
2018-03-14T20:22:01.078Z,15.20
2018-03-14T20:24:29.756Z,15.30
2018-03-14T20:26:58.276Z,15.00
2018-03-14T20:29:27.339Z,14.90
2018-03-14T20:31:56.241Z,15.10
2018-03-14T20:34:24.899Z,14.90
2018-03-14T20:36:54.051Z,14.60
2018-03-14T20:39:23.104Z,14.30
2018-03-14T20:41:52.584Z,14.00
2018-03-14T20:44:21.693Z,13.70
2018-03-14T20:46:50.365Z,13.70
2018-03-14T20:49:19.877Z,13.60
2018-03-14T20:51:48.786Z,13.50
2018-03-14T20:54:17.978Z,13.50
2018-03-14T20:56:46.652Z,13.60
2018-03-14T20:59:15.757Z,13.70
2018-03-14T21:01:44.595Z,13.60
2018-03-14T21:04:13.315Z,13.50
2018-03-14T21:06:42.012Z,13.50
2018-03-14T21:09:10.744Z,13.40
2018-03-14T21:11:39.562Z,13.00
2018-03-14T21:14:08.887Z,13.10
2018-03-14T21:16:38.193Z,13.00
2018-03-14T21:19:07.165Z,13.00
2018-03-14T21:21:36.070Z,12.90
2018-03-14T21:24:05.143Z,13.00
2018-03-14T21:26:33.819Z,12.90
2018-03-14T21:29:03.427Z,12.60
2018-03-14T21:31:32.521Z,12.60
2018-03-14T21:34:01.815Z,12.60
2018-03-14T21:36:30.512Z,12.60
2018-03-14T21:39:00.011Z,12.80
2018-03-14T21:41:28.738Z,12.70
2018-03-14T21:43:57.393Z,12.80
2018-03-14T21:46:26.081Z,12.60
2018-03-14T21:48:55.868Z,12.70
2018-03-14T21:51:24.433Z,12.70
2018-03-14T21:53:53.275Z,13.10
2018-03-14T21:56:22.435Z,12.90
2018-03-14T21:58:51.701Z,13.10
2018-03-14T22:01:20.311Z,13.10
2018-03-14T22:03:48.837Z,13.20
2018-03-14T22:06:17.568Z,13.30
2018-03-14T22:08:46.576Z,13.30
2018-03-14T22:11:15.756Z,13.30
2018-03-14T22:13:44.269Z,13.10
2018-03-14T22:16:12.787Z,12.90
2018-03-14T22:18:42.058Z,12.60
2018-03-14T22:21:10.956Z,12.70
2018-03-14T22:23:39.740Z,12.60
2018-03-14T22:26:08.449Z,12.20
2018-03-14T22:28:37.114Z,12.30
2018-03-14T22:31:05.616Z,12.30
2018-03-14T22:33:34.116Z,12.20
2018-03-14T22:36:02.756Z,12.10
2018-03-14T22:38:31.266Z,11.90
2018-03-14T22:41:00.117Z,12.00
2018-03-14T22:43:29.010Z,12.20
2018-03-14T22:45:57.650Z,12.50
2018-03-14T22:48:26.388Z,12.60
2018-03-14T22:50:56.062Z,12.60
2018-03-14T22:53:24.949Z,12.80
2018-03-14T22:55:55.117Z,12.80
2018-03-14T22:58:23.975Z,12.80
2018-03-14T23:00:54.016Z,12.90
2018-03-14T23:03:25.374Z,13.10
2018-03-14T23:05:57.499Z,13.10
2018-03-14T23:08:26.215Z,13.20
2018-03-14T23:10:54.829Z,13.00
2018-03-14T23:13:27.103Z,13.20
2018-03-14T23:15:56.282Z,13.10
2018-03-14T23:18:26.431Z,13.20
2018-03-14T23:20:55.436Z,13.20
2018-03-14T23:23:24.761Z,13.30
2018-03-14T23:25:53.673Z,13.30
2018-03-14T23:28:23.137Z,13.30
2018-03-14T23:30:52.026Z,13.20
2018-03-14T23:33:20.707Z,13.10
2018-03-14T23:35:49.426Z,13.00
2018-03-14T23:38:18.092Z,12.50
2018-03-14T23:40:46.787Z,12.60
2018-03-14T23:43:15.454Z,12.40
2018-03-14T23:45:44.975Z,12.40
2018-03-14T23:48:13.622Z,12.40
2018-03-14T23:50:42.168Z,12.30
2018-03-14T23:53:10.827Z,12.40
2018-03-14T23:55:39.705Z,12.40
2018-03-14T23:58:10.049Z,12.20
